createdAt,value
2019-04-01T00:00:50.432Z,11.50
2019-04-01T00:03:19.601Z,11.50
2019-04-01T00:05:48.484Z,11.50
2019-04-01T00:08:17.381Z,11.40
2019-04-01T00:10:46.329Z,11.40
2019-04-01T00:13:15.240Z,11.40
2019-04-01T00:15:44.140Z,11.40
2019-04-01T00:18:12.953Z,11.30
2019-04-01T00:20:41.937Z,11.20
2019-04-01T00:23:11.379Z,11.20
2019-04-01T00:25:40.437Z,11.20
2019-04-01T00:28:09.358Z,11.20
2019-04-01T00:30:38.181Z,11.20
2019-04-01T00:33:07.227Z,11.20
2019-04-01T00:35:36.164Z,11.10
2019-04-01T00:38:05.064Z,11.00
2019-04-01T00:40:34.083Z,11.00
2019-04-01T00:43:12.434Z,10.90
2019-04-01T00:45:42.941Z,10.90
2019-04-01T00:48:11.851Z,10.80
2019-04-01T00:50:40.796Z,10.70
2019-04-01T00:53:09.755Z,10.60
2019-04-01T00:55:38.672Z,10.70
2019-04-01T00:58:07.638Z,10.60
2019-04-01T01:00:36.641Z,10.60
2019-04-01T01:03:05.625Z,10.50
2019-04-01T01:05:34.479Z,10.40
2019-04-01T01:08:03.563Z,10.40
2019-04-01T01:10:32.487Z,10.40
2019-04-01T01:13:01.463Z,10.40
2019-04-01T01:15:30.405Z,10.40
2019-04-01T01:17:59.421Z,10.40
2019-04-01T01:20:28.416Z,10.40
2019-04-01T01:22:57.409Z,10.30
2019-04-01T01:25:26.395Z,10.30
2019-04-01T01:27:55.913Z,10.30
2019-04-01T01:30:24.962Z,10.20
2019-04-01T01:32:54.100Z,10.20
2019-04-01T01:35:23.137Z,10.20
2019-04-01T01:37:52.154Z,10.20
2019-04-01T01:40:21.097Z,10.10
2019-04-01T01:42:50.089Z,10.00
2019-04-01T01:45:18.924Z,10.00
2019-04-01T01:47:47.838Z,10.00
2019-04-01T01:50:16.812Z,9.90
2019-04-01T01:52:45.849Z,10.00
2019-04-01T01:55:14.817Z,10.00
2019-04-01T01:57:43.792Z,10.00
2019-04-01T02:00:13.937Z,9.90
2019-04-01T02:02:42.848Z,9.80
2019-04-01T02:05:11.985Z,9.80
2019-04-01T02:07:40.832Z,9.80
2019-04-01T02:10:10.660Z,9.80
2019-04-01T02:12:39.584Z,9.80
2019-04-01T02:15:08.568Z,9.70
2019-04-01T02:17:37.560Z,9.60
2019-04-01T02:20:06.608Z,9.60
2019-04-01T02:22:35.520Z,9.60
2019-04-01T02:25:04.897Z,9.50
2019-04-01T02:27:33.812Z,9.50
2019-04-01T02:30:02.799Z,9.50
2019-04-01T02:32:31.622Z,9.40
2019-04-01T02:35:00.734Z,9.40
2019-04-01T02:37:29.736Z,9.40
2019-04-01T02:39:58.740Z,9.40
2019-04-01T02:42:27.751Z,9.40
2019-04-01T02:44:56.669Z,9.40
2019-04-01T02:47:25.625Z,9.40
2019-04-01T02:49:54.431Z,9.30
2019-04-01T02:52:23.609Z,9.30
2019-04-01T02:54:52.509Z,9.30
2019-04-01T02:57:21.462Z,9.30
2019-04-01T02:59:50.277Z,9.20
2019-04-01T03:02:19.291Z,9.20
2019-04-01T03:04:48.385Z,9.20
2019-04-01T03:07:17.290Z,9.20
2019-04-01T03:09:46.265Z,9.20
2019-04-01T03:12:15.463Z,9.10
2019-04-01T03:14:44.286Z,9.00
2019-04-01T03:17:13.233Z,9.10
2019-04-01T03:19:42.219Z,9.10
2019-04-01T03:22:11.216Z,9.10
2019-04-01T03:24:40.303Z,9.10
2019-04-01T03:27:09.294Z,9.10
2019-04-01T03:29:40.970Z,9.10
2019-04-01T03:32:10.154Z,9.10
2019-04-01T03:34:39.210Z,9.10
2019-04-01T03:37:08.160Z,9.00
2019-04-01T03:39:36.957Z,8.90
2019-04-01T03:42:05.875Z,8.90
2019-04-01T03:44:34.794Z,8.90
2019-04-01T03:47:03.719Z,8.90
2019-04-01T03:49:32.729Z,8.90
2019-04-01T03:52:01.666Z,8.90
2019-04-01T03:54:30.641Z,8.80
2019-04-01T03:56:59.574Z,8.80
2019-04-01T03:59:28.401Z,8.80
2019-04-01T04:01:57.341Z,8.90
2019-04-01T04:04:26.359Z,8.80
2019-04-01T04:06:55.421Z,8.80
2019-04-01T04:09:24.352Z,8.80
2019-04-01T04:11:53.381Z,8.80
2019-04-01T04:14:22.405Z,8.80
2019-04-01T04:16:51.406Z,8.70
2019-04-01T04:19:21.977Z,8.70
2019-04-01T04:21:50.993Z,8.70
2019-04-01T04:24:20.251Z,8.60
2019-04-01T04:26:49.242Z,8.60
2019-04-01T04:29:18.356Z,8.60
2019-04-01T04:31:47.397Z,8.60
2019-04-01T04:34:16.237Z,8.60
2019-04-01T04:36:45.497Z,8.60
2019-04-01T04:39:14.429Z,8.60
2019-04-01T04:41:43.330Z,8.50
2019-04-01T04:44:12.269Z,8.50
2019-04-01T04:46:41.256Z,8.50
2019-04-01T04:49:10.288Z,8.50
2019-04-01T04:51:39.280Z,8.50
2019-04-01T04:54:08.141Z,8.50
2019-04-01T04:56:37.054Z,8.50
2019-04-01T04:59:05.961Z,8.50
2019-04-01T05:01:35.000Z,8.40
2019-04-01T05:04:04.009Z,8.40
2019-04-01T05:06:32.973Z,8.40
2019-04-01T05:09:01.963Z,8.40
2019-04-01T05:11:30.922Z,8.30
2019-04-01T05:13:59.913Z,8.20
2019-04-01T05:16:29.058Z,8.20
2019-04-01T05:18:57.973Z,8.30
2019-04-01T05:21:27.473Z,8.30
2019-04-01T05:23:56.892Z,8.20
2019-04-01T05:26:27.095Z,8.20
2019-04-01T05:28:58.465Z,8.20
2019-04-01T05:31:30.641Z,8.20
2019-04-01T05:34:01.529Z,8.20
2019-04-01T05:36:31.388Z,8.20
2019-04-01T05:39:00.334Z,8.20
2019-04-01T05:41:29.573Z,8.20
2019-04-01T05:44:02.134Z,8.20
2019-04-01T05:46:30.045Z,8.20
2019-04-01T05:48:59.284Z,8.20
2019-04-01T05:51:29.386Z,8.20
2019-04-01T05:53:58.496Z,8.20
2019-04-01T05:56:27.638Z,8.30
2019-04-01T05:58:56.662Z,8.20
2019-04-01T06:01:30.105Z,8.20
2019-04-01T06:03:59.252Z,8.20
2019-04-01T06:06:28.245Z,8.30
2019-04-01T06:08:57.191Z,8.20
2019-04-01T06:11:26.189Z,8.30
2019-04-01T06:13:56.126Z,8.30
2019-04-01T06:16:25.309Z,8.30
2019-04-01T06:18:54.216Z,8.40
2019-04-01T06:21:23.216Z,8.40
2019-04-01T06:23:52.532Z,8.40
2019-04-01T06:26:21.588Z,8.40
2019-04-01T06:28:51.246Z,8.50
2019-04-01T06:31:20.261Z,8.50
2019-04-01T06:33:49.329Z,8.60
2019-04-01T06:36:18.313Z,8.60
2019-04-01T06:38:47.525Z,8.60
2019-04-01T06:41:16.541Z,8.70
2019-04-01T06:43:45.829Z,8.70
2019-04-01T06:46:14.728Z,8.80
2019-04-01T06:48:43.984Z,8.80
2019-04-01T06:51:13.064Z,8.90
2019-04-01T06:53:42.584Z,8.90
2019-04-01T06:56:11.723Z,8.90
2019-04-01T06:58:40.725Z,8.90
2019-04-01T07:01:09.735Z,9.00
2019-04-01T07:03:39.228Z,9.00
2019-04-01T07:06:08.273Z,9.10
2019-04-01T07:08:37.318Z,9.10
2019-04-01T07:11:06.861Z,9.20
2019-04-01T07:13:39.699Z,9.20
2019-04-01T07:16:15.271Z,9.30
2019-04-01T07:18:37.502Z,9.30
2019-04-01T07:21:06.575Z,9.40
2019-04-01T07:23:35.588Z,9.40
2019-04-01T07:26:04.624Z,9.50
2019-04-01T07:28:33.651Z,9.60
2019-04-01T07:31:02.680Z,9.60
2019-04-01T07:33:31.693Z,9.70
2019-04-01T07:36:00.840Z,9.80
2019-04-01T07:38:29.869Z,9.80
2019-04-01T07:40:59.410Z,9.80
2019-04-01T07:43:30.204Z,9.90
2019-04-01T07:46:00.110Z,10.00
2019-04-01T07:48:29.462Z,10.00
2019-04-01T07:50:58.648Z,10.10
2019-04-01T07:53:27.678Z,10.20
2019-04-01T07:55:56.649Z,10.20
2019-04-01T07:58:25.645Z,10.30
2019-04-01T08:00:54.861Z,10.30
2019-04-01T08:03:24.349Z,10.40
2019-04-01T08:05:53.237Z,10.50
2019-04-01T08:08:22.424Z,10.60
2019-04-01T08:10:51.664Z,10.60
2019-04-01T08:13:20.642Z,10.70
2019-04-01T08:15:49.689Z,10.70
2019-04-01T08:18:18.699Z,10.70
2019-04-01T08:20:47.739Z,10.80
2019-04-01T08:23:16.748Z,10.90
2019-04-01T08:25:47.994Z,10.90
2019-04-01T08:28:16.461Z,11.00
2019-04-01T08:30:45.364Z,11.10
2019-04-01T08:33:14.372Z,11.20
2019-04-01T08:35:43.360Z,11.30
2019-04-01T08:38:12.520Z,11.30
2019-04-01T08:40:41.588Z,11.40
2019-04-01T08:43:10.652Z,11.60
2019-04-01T08:45:39.553Z,11.70
2019-04-01T08:48:08.550Z,11.70
2019-04-01T08:50:38.178Z,11.80
2019-04-01T08:53:07.125Z,11.90
2019-04-01T08:55:36.093Z,12.00
2019-04-01T08:58:05.121Z,12.10
2019-04-01T09:00:34.065Z,12.30
2019-04-01T09:03:03.468Z,12.30
2019-04-01T09:05:32.333Z,12.40
2019-04-01T09:08:01.606Z,12.50
2019-04-01T09:10:31.214Z,12.60
2019-04-01T09:13:00.632Z,12.60
2019-04-01T09:15:29.743Z,12.60
2019-04-01T09:17:58.672Z,12.70
2019-04-01T09:20:27.556Z,12.80
2019-04-01T09:22:59.356Z,12.90
2019-04-01T09:25:31.845Z,13.00
2019-04-01T09:28:00.855Z,13.10
2019-04-01T09:30:29.891Z,13.10
2019-04-01T09:32:58.948Z,13.20
2019-04-01T09:35:28.137Z,13.20
2019-04-01T09:37:57.125Z,13.30
2019-04-01T09:40:26.130Z,13.40
2019-04-01T09:42:54.954Z,13.50
2019-04-01T09:45:23.858Z,13.60
2019-04-01T09:47:52.918Z,13.80
2019-04-01T09:50:22.153Z,13.90
2019-04-01T09:52:51.078Z,14.00
2019-04-01T09:55:22.033Z,14.00
2019-04-01T09:57:50.930Z,14.10
2019-04-01T10:00:20.225Z,14.20
2019-04-01T10:02:49.114Z,14.30
2019-04-01T10:05:18.088Z,14.30
2019-04-01T10:07:47.163Z,14.50
2019-04-01T10:10:16.429Z,14.60
2019-04-01T10:12:45.384Z,14.70
2019-04-01T10:15:14.382Z,14.70
2019-04-01T10:17:43.343Z,14.80
2019-04-01T10:20:12.872Z,14.90
2019-04-01T10:22:41.851Z,15.00
2019-04-01T10:25:10.946Z,15.20
2019-04-01T10:27:41.631Z,15.40
2019-04-01T10:30:11.266Z,15.50
2019-04-01T10:32:40.296Z,15.60
2019-04-01T10:35:09.851Z,15.70
2019-04-01T10:37:38.781Z,15.80
2019-04-01T10:40:08.093Z,15.90
2019-04-01T10:42:38.070Z,16.10
2019-04-01T10:45:08.925Z,16.20
2019-04-01T10:47:38.027Z,16.30
2019-04-01T10:50:09.099Z,16.40
2019-04-01T10:52:38.133Z,16.50
2019-04-01T10:55:07.817Z,16.70
2019-04-01T10:57:37.234Z,16.80
2019-04-01T11:00:08.368Z,16.90
2019-04-01T11:02:37.419Z,17.00
2019-04-01T11:05:07.767Z,17.10
2019-04-01T11:07:36.791Z,17.30
2019-04-01T11:10:06.820Z,17.40
2019-04-01T11:12:35.817Z,17.50
2019-04-01T11:15:05.399Z,17.60
2019-04-01T11:17:34.477Z,17.80
2019-04-01T11:20:03.517Z,18.00
2019-04-01T11:22:32.566Z,18.00
2019-04-01T11:25:01.743Z,18.10
2019-04-01T11:27:30.759Z,18.20
2019-04-01T11:29:59.659Z,18.30
2019-04-01T11:32:28.646Z,18.50
2019-04-01T11:34:57.992Z,18.60
2019-04-01T11:37:27.132Z,18.80
2019-04-01T11:39:56.202Z,18.90
2019-04-01T11:42:25.180Z,19.00
2019-04-01T11:44:56.808Z,19.10
2019-04-01T11:47:25.926Z,19.20
2019-04-01T11:49:54.963Z,19.40
2019-04-01T11:52:24.178Z,19.50
2019-04-01T11:54:53.289Z,19.70
2019-04-01T11:57:22.280Z,19.80
2019-04-01T11:59:51.707Z,19.90
2019-04-01T12:02:21.131Z,20.00
2019-04-01T12:04:50.643Z,20.10
2019-04-01T12:07:19.714Z,20.30
2019-04-01T12:09:51.987Z,20.40
2019-04-01T12:12:24.107Z,20.50
2019-04-01T12:14:50.035Z,20.60
2019-04-01T12:19:47.978Z,20.80
2019-04-01T12:22:19.757Z,20.90
2019-04-01T12:24:47.712Z,21.00
2019-04-01T12:27:16.583Z,21.10
2019-04-01T12:29:48.260Z,21.20
2019-04-01T12:32:16.601Z,21.30
2019-04-01T12:34:46.672Z,21.40
2019-04-01T12:37:15.937Z,21.60
2019-04-01T12:39:44.816Z,21.70
2019-04-01T12:42:18.025Z,21.70
2019-04-01T12:44:46.995Z,21.90
2019-04-01T12:47:16.062Z,22.10
2019-04-01T12:49:45.088Z,22.30
2019-04-01T12:52:14.193Z,22.50
2019-04-01T12:54:43.883Z,22.70
2019-04-01T12:57:13.973Z,23.10
2019-04-01T12:59:45.852Z,23.60
2019-04-01T13:02:14.121Z,24.30
2019-04-01T13:04:43.712Z,25.40
2019-04-01T13:07:12.629Z,26.80
2019-04-01T13:09:42.007Z,28.10
2019-04-01T13:12:10.844Z,29.60
2019-04-01T13:14:40.333Z,30.40
2019-04-01T13:17:09.808Z,31.40
2019-04-01T13:19:38.616Z,32.00
2019-04-01T13:22:09.058Z,32.60
2019-04-01T13:24:38.645Z,33.40
2019-04-01T13:27:09.298Z,33.60
2019-04-01T13:29:37.401Z,34.00
2019-04-01T13:32:06.404Z,34.30
2019-04-01T13:34:35.317Z,34.70
2019-04-01T13:37:04.193Z,35.20
2019-04-01T13:39:33.060Z,35.50
2019-04-01T13:42:02.102Z,35.00
2019-04-01T13:44:37.201Z,34.80
2019-04-01T13:47:00.781Z,34.10
2019-04-01T13:49:29.717Z,34.10
2019-04-01T13:51:59.074Z,33.30
2019-04-01T13:54:28.810Z,33.30
2019-04-01T13:56:57.816Z,33.70
2019-04-01T13:59:26.600Z,33.50
2019-04-01T14:01:56.302Z,33.10
2019-04-01T14:04:27.376Z,32.80
2019-04-01T14:06:56.468Z,31.80
2019-04-01T14:09:25.356Z,31.40
2019-04-01T14:11:54.288Z,31.20
2019-04-01T14:14:23.180Z,31.00
2019-04-01T14:16:52.418Z,31.20
2019-04-01T14:19:21.371Z,31.40
2019-04-01T14:21:51.896Z,30.90
2019-04-01T14:24:20.974Z,30.40
2019-04-01T14:26:49.949Z,30.30
2019-04-01T14:29:19.213Z,30.40
2019-04-01T14:31:48.084Z,29.70
2019-04-01T14:34:22.966Z,29.20
2019-04-01T14:36:47.476Z,28.50
2019-04-01T14:39:16.372Z,28.30
2019-04-01T14:41:45.352Z,27.80
2019-04-01T14:44:14.340Z,27.50
2019-04-01T14:46:43.183Z,27.60
2019-04-01T14:49:12.151Z,27.60
2019-04-01T14:51:41.831Z,27.60
2019-04-01T14:54:11.620Z,28.10
2019-04-01T14:56:40.860Z,28.60
2019-04-01T14:59:10.043Z,28.70
2019-04-01T15:01:38.992Z,28.40
2019-04-01T15:04:07.888Z,28.00
2019-04-01T15:06:36.892Z,28.10
2019-04-01T15:09:08.445Z,28.00
2019-04-01T15:11:37.384Z,27.90
2019-04-01T15:14:06.442Z,28.10
2019-04-01T15:16:35.388Z,27.80
2019-04-01T15:19:04.376Z,27.90
2019-04-01T15:21:33.336Z,27.50
2019-04-01T15:24:02.276Z,27.30
2019-04-01T15:26:31.200Z,27.20
2019-04-01T15:29:00.884Z,27.40
2019-04-01T15:31:30.188Z,27.40
2019-04-01T15:33:59.044Z,27.10
2019-04-01T15:36:27.964Z,27.40
2019-04-01T15:38:56.945Z,27.30
2019-04-01T15:41:26.843Z,27.10
2019-04-01T15:43:55.979Z,27.40
2019-04-01T15:46:24.780Z,27.60
2019-04-01T15:48:53.657Z,27.30
2019-04-01T15:51:22.739Z,27.00
2019-04-01T15:53:51.668Z,26.80
2019-04-01T15:56:20.572Z,26.50
2019-04-01T15:58:50.952Z,26.20
2019-04-01T16:01:20.125Z,25.80
2019-04-01T16:03:48.960Z,25.50
2019-04-01T16:06:17.913Z,25.20
2019-04-01T16:08:46.896Z,24.60
2019-04-01T16:11:15.781Z,24.50
2019-04-01T16:13:43.748Z,24.30
2019-04-01T16:16:14.673Z,24.10
2019-04-01T16:18:43.367Z,24.10
2019-04-01T16:21:12.329Z,24.00
2019-04-01T16:23:41.204Z,23.90
2019-04-01T16:26:10.102Z,23.70
2019-04-01T16:28:38.977Z,23.60
2019-04-01T16:31:07.958Z,23.50
2019-04-01T16:33:36.852Z,23.30
2019-04-01T16:36:05.937Z,23.20
2019-04-01T16:38:34.784Z,23.00
2019-04-01T16:41:04.076Z,22.90
2019-04-01T16:43:31.988Z,22.80
2019-04-01T16:46:01.113Z,22.70
2019-04-01T16:48:29.996Z,22.50
2019-04-01T16:50:58.883Z,22.40
2019-04-01T16:53:27.851Z,22.30
2019-04-01T16:55:56.884Z,22.10
2019-04-01T16:58:26.040Z,22.00
2019-04-01T17:00:55.215Z,21.90
2019-04-01T17:03:24.425Z,21.70
2019-04-01T17:05:53.488Z,21.70
2019-04-01T17:08:22.540Z,21.50
2019-04-01T17:10:50.516Z,21.50
2019-04-01T17:13:18.488Z,21.30
2019-04-01T17:15:46.525Z,21.30
2019-04-01T17:18:15.536Z,21.10
2019-04-01T17:20:43.576Z,21.00
2019-04-01T17:23:13.640Z,20.90
2019-04-01T17:25:41.636Z,20.80
2019-04-01T17:28:10.744Z,20.80
2019-04-01T17:30:39.708Z,20.60
2019-04-01T17:33:08.913Z,20.50
2019-04-01T17:35:36.944Z,20.40
2019-04-01T17:38:07.092Z,20.30
2019-04-01T17:40:36.300Z,20.20
2019-04-01T17:43:05.352Z,20.10
2019-04-01T17:45:37.051Z,20.00
2019-04-01T17:48:06.461Z,19.90
2019-04-01T17:50:38.616Z,19.80
2019-04-01T17:53:09.371Z,19.70
2019-04-01T17:55:38.360Z,19.60
2019-04-01T17:58:07.850Z,19.50
2019-04-01T18:00:41.901Z,19.50
2019-04-01T18:03:10.983Z,19.50
2019-04-01T18:05:39.940Z,19.40
2019-04-01T18:08:08.831Z,19.30
2019-04-01T18:10:37.816Z,19.20
2019-04-01T18:13:06.720Z,19.20
2019-04-01T18:15:36.011Z,19.10
2019-04-01T18:18:10.057Z,19.00
2019-04-01T18:20:39.242Z,18.90
2019-04-01T18:23:08.344Z,18.80
2019-04-01T18:25:37.267Z,18.70
2019-04-01T18:28:06.197Z,18.70
2019-04-01T18:30:35.568Z,18.60
2019-04-01T18:33:04.709Z,18.60
2019-04-01T18:35:33.765Z,18.50
2019-04-01T18:38:02.720Z,18.50
2019-04-01T18:40:35.296Z,18.40
2019-04-01T18:43:02.636Z,18.40
2019-04-01T18:45:31.550Z,18.30
2019-04-01T18:48:00.444Z,18.30
2019-04-01T18:50:30.439Z,18.20
2019-04-01T18:52:59.584Z,18.10
2019-04-01T18:55:28.479Z,18.00
2019-04-01T18:57:57.832Z,18.00
2019-04-01T19:00:26.838Z,18.00
2019-04-01T19:02:55.937Z,18.00
2019-04-01T19:05:25.362Z,17.90
2019-04-01T19:07:54.519Z,17.80
2019-04-01T19:10:23.578Z,17.70
2019-04-01T19:13:05.258Z,17.70
2019-04-01T19:15:24.491Z,17.70
2019-04-01T19:17:54.527Z,17.70
2019-04-01T19:20:23.638Z,17.70
2019-04-01T19:22:52.649Z,17.60
2019-04-01T19:25:23.371Z,17.60
2019-04-01T19:27:53.149Z,17.60
2019-04-01T19:30:22.379Z,17.50
2019-04-01T19:32:51.460Z,17.40
2019-04-01T19:35:20.380Z,17.40
2019-04-01T19:37:49.552Z,17.40
2019-04-01T19:40:20.574Z,17.30
2019-04-01T19:42:49.475Z,17.20
2019-04-01T19:45:18.476Z,17.10
2019-04-01T19:47:47.389Z,17.00
2019-04-01T19:50:20.437Z,17.00
2019-04-01T19:52:56.832Z,17.00
2019-04-01T19:55:28.242Z,16.90
2019-04-01T19:57:57.808Z,16.80
2019-04-01T20:00:28.471Z,16.80
2019-04-01T20:02:57.944Z,16.70
2019-04-01T20:05:26.997Z,16.60
2019-04-01T20:07:56.541Z,16.60
2019-04-01T20:10:28.232Z,16.60
2019-04-01T20:12:56.795Z,16.50
2019-04-01T20:15:27.417Z,16.50
2019-04-01T20:17:56.488Z,16.40
2019-04-01T20:20:25.589Z,16.40
2019-04-01T20:22:54.516Z,16.30
2019-04-01T20:25:23.854Z,16.30
2019-04-01T20:27:52.747Z,16.30
2019-04-01T20:30:22.311Z,16.30
2019-04-01T20:32:51.659Z,16.30
2019-04-01T20:35:23.690Z,16.20
2019-04-01T20:37:51.512Z,16.20
2019-04-01T20:40:21.285Z,16.20
2019-04-01T20:42:50.164Z,16.20
2019-04-01T20:45:19.421Z,16.10
2019-04-01T20:47:50.224Z,16.10
2019-04-01T20:50:20.067Z,16.00
2019-04-01T20:52:50.100Z,16.00
2019-04-01T20:55:19.452Z,16.00
2019-04-01T20:57:48.280Z,15.90
2019-04-01T21:00:18.300Z,15.80
2019-04-01T21:02:47.187Z,15.80
2019-04-01T21:05:16.710Z,15.70
2019-04-01T21:07:47.088Z,15.70
2019-04-01T21:10:16.403Z,15.60
2019-04-01T21:12:45.224Z,15.60
2019-04-01T21:15:14.616Z,15.50
2019-04-01T21:17:43.392Z,15.40
2019-04-01T21:20:13.227Z,15.40
2019-04-01T21:22:42.475Z,15.40
2019-04-01T21:25:11.855Z,15.40
2019-04-01T21:27:40.896Z,15.30
2019-04-01T21:30:10.090Z,15.30
2019-04-01T21:32:38.984Z,15.30
2019-04-01T21:35:09.455Z,15.30
2019-04-01T21:37:38.704Z,15.20
2019-04-01T21:40:07.917Z,15.20
2019-04-01T21:42:36.818Z,15.20
2019-04-01T21:45:06.451Z,15.20
2019-04-01T21:47:35.441Z,15.20
2019-04-01T21:50:06.357Z,15.10
2019-04-01T21:52:35.791Z,15.10
2019-04-01T21:55:08.202Z,15.00
2019-04-01T21:57:36.542Z,15.00
2019-04-01T22:00:07.820Z,15.00
2019-04-01T22:02:37.092Z,14.90
2019-04-01T22:05:07.728Z,14.90
2019-04-01T22:07:38.169Z,14.90
2019-04-01T22:10:07.768Z,14.80
2019-04-01T22:12:36.644Z,14.80
2019-04-01T22:15:06.313Z,14.70
2019-04-01T22:17:35.226Z,14.70
2019-04-01T22:20:05.860Z,14.70
2019-04-01T22:22:34.645Z,14.60
2019-04-01T22:25:04.206Z,14.60
2019-04-01T22:27:33.219Z,14.50
2019-04-01T22:30:02.210Z,14.50
2019-04-01T22:32:31.080Z,14.50
2019-04-01T22:34:59.992Z,14.40
2019-04-01T22:37:28.934Z,14.40
2019-04-01T22:39:57.820Z,14.30
2019-04-01T22:42:27.248Z,14.20
2019-04-01T22:44:56.741Z,14.10
2019-04-01T22:47:25.634Z,14.00
2019-04-01T22:49:54.565Z,14.00
2019-04-01T22:52:23.380Z,13.90
2019-04-01T22:54:53.340Z,13.80
2019-04-01T22:57:24.064Z,13.80
2019-04-01T22:59:53.083Z,13.70
2019-04-01T23:02:22.008Z,13.70
2019-04-01T23:04:50.917Z,13.60
2019-04-01T23:07:20.093Z,13.60
2019-04-01T23:09:48.998Z,13.60
2019-04-01T23:12:17.974Z,13.60
2019-04-01T23:14:47.420Z,13.50
2019-04-01T23:17:16.456Z,13.40
2019-04-01T23:19:45.427Z,13.40
2019-04-01T23:22:14.559Z,13.30
2019-04-01T23:24:43.346Z,13.20
2019-04-01T23:27:12.236Z,13.00
2019-04-01T23:29:41.132Z,13.00
2019-04-01T23:32:10.280Z,13.00
2019-04-01T23:34:39.264Z,13.00
2019-04-01T23:37:09.109Z,13.00
2019-04-01T23:39:38.240Z,13.00
2019-04-01T23:42:07.349Z,13.00
2019-04-01T23:44:36.244Z,12.90
2019-04-01T23:47:05.302Z,12.90
2019-04-01T23:49:34.204Z,12.90
2019-04-01T23:52:03.144Z,12.90
2019-04-01T23:54:32.072Z,12.80
2019-04-01T23:57:00.875Z,12.70
2019-04-01T23:59:30.164Z,12.70
